Time;durP1;ratioP1;P1;durP2;ratioP2;P2;SDS_P1;SDS_P2;PMS_P1;PMS_P2;Temp;Humidity;BMP_temperature;BMP_pressure;BME280_temperature;BME280_humidity;BME280_pressure;Samples;Min_cycle;Max_cycle;Signal;HPM_P1;HPM_P2
2021/12/13 00:00:56;;;;;;;13.82;6.93;;;;;;;1.74;87.96;101357.50;4993479;28;20057;-90
2021/12/13 00:03:34;;;;;;;12.70;6.78;;;;;;;1.79;87.93;101356.31;4987330;28;20127;-89
2021/12/13 00:06:30;;;;;;;10.98;5.60;;;;;;;1.90;87.06;101350.50;5023737;28;20122;-91
2021/12/13 00:11:56;;;;;;;9.32;5.72;;;;;;;1.91;87.60;101347.81;5021134;28;20278;-91
2021/12/13 00:14:33;;;;;;;12.43;5.97;;;;;;;1.96;87.25;101352.75;5019872;28;20042;-92
2021/12/13 00:17:04;;;;;;;12.25;6.40;;;;;;;1.81;87.98;101340.56;5003698;28;20076;-92
2021/12/13 00:19:44;;;;;;;12.63;6.07;;;;;;;1.76;87.51;101343.44;5022623;28;20030;-91
2021/12/13 00:22:19;;;;;;;11.88;6.28;;;;;;;1.89;87.45;101343.59;5021676;28;20049;-92
2021/12/13 00:24:47;;;;;;;12.63;5.38;;;;;;;1.99;86.54;101349.97;5005285;28;20041;-90
2021/12/13 00:27:29;;;;;;;10.35;5.38;;;;;;;2.27;85.61;101350.09;5029715;28;20030;-90
2021/12/13 00:30:28;;;;;;;12.52;5.15;;;;;;;2.17;84.85;101350.69;5034212;28;20073;-91
2021/12/13 00:33:31;;;;;;;11.60;6.03;;;;;;;2.22;85.08;101352.09;5032961;28;20045;-90
2021/12/13 00:36:18;;;;;;;10.70;5.15;;;;;;;2.02;86.28;101355.06;5014351;28;20042;-89
2021/12/13 00:38:51;;;;;;;;;;;;;;;1.89;85.72;101347.03;5026429;28;20073;-89
2021/12/13 00:41:26;;;;;;;9.00;4.45;;;;;;;2.11;85.86;101348.44;5012646;28;19984;-91
2021/12/13 00:43:55;;;;;;;5.72;3.60;;;;;;;1.98;84.57;101348.31;5011768;28;20495;-91
2021/12/13 00:46:43;;;;;;;5.85;2.90;;;;;;;1.89;84.16;101341.00;5233056;22;20865;-90
2021/12/13 00:49:15;;;;;;;3.72;2.45;;;;;;;1.66;85.20;101336.22;5030854;28;20055;-89
2021/12/13 00:51:52;;;;;;;6.75;2.40;;;;;;;1.51;85.24;101341.34;5033497;28;20068;-89
2021/12/13 00:54:35;;;;;;;3.47;2.30;;;;;;;1.49;84.98;101337.97;5033717;28;20014;-91
2021/12/13 00:57:30;;;;;;;4.65;2.67;;;;;;;1.73;84.78;101327.09;5016113;28;20076;-92
2021/12/13 01:00:20;;;;;;;3.97;2.40;;;;;;;1.89;84.37;101331.34;4986650;28;20048;-90
2021/12/13 01:03:10;;;;;;;5.15;2.70;;;;;;;2.02;84.89;101334.94;5032780;28;20040;-89
2021/12/13 01:05:55;;;;;;;4.03;2.22;;;;;;;1.89;84.06;101320.09;5044913;28;20048;-90
2021/12/13 01:08:58;;;;;;;3.28;2.10;;;;;;;1.92;83.16;101330.38;5016160;28;20117;-91
2021/12/13 01:11:57;;;;;;;3.92;2.00;;;;;;;1.80;83.09;101324.03;5035643;28;20132;-90
2021/12/13 01:15:03;;;;;;;4.15;2.35;;;;;;;1.67;84.19;101322.19;5048851;28;20038;-91
2021/12/13 01:20:57;;;;;;;5.13;2.65;;;;;;;1.99;82.63;101326.44;5025270;28;20056;-92
2021/12/13 01:23:47;;;;;;;5.50;2.38;;;;;;;2.17;81.88;101333.25;5041296;28;20095;-90
2021/12/13 01:28:51;;;;;;;4.43;2.20;;;;;;;2.16;79.79;101338.53;5024061;28;20045;-92
2021/12/13 01:31:24;;;;;;;4.35;1.90;;;;;;;2.18;80.65;101334.09;5022151;28;20461;-90
2021/12/13 01:33:59;;;;;;;3.90;2.13;;;;;;;2.03;81.46;101323.56;5024868;28;20037;-91
2021/12/13 01:36:50;;;;;;;2.17;1.60;;;;;;;2.18;81.05;101329.72;5024500;28;20049;-92
2021/12/13 01:39:23;;;;;;;3.30;1.58;;;;;;;2.02;79.75;101318.47;5025064;28;20037;-89
2021/12/13 01:41:59;;;;;;;3.60;1.50;;;;;;;1.96;80.06;101324.00;5026945;28;20042;-89
2021/12/13 01:44:33;;;;;;;1.65;1.17;;;;;;;1.84;80.51;101329.94;5042343;28;20644;-90
2021/12/13 01:47:09;;;;;;;1.95;1.33;;;;;;;1.94;80.07;101331.09;5022393;28;20041;-90
2021/12/13 01:49:44;;;;;;;1.70;1.25;;;;;;;2.01;79.56;101332.44;5021047;28;20121;-91
2021/12/13 01:52:17;;;;;;;3.15;1.55;;;;;;;2.15;78.48;101327.28;5021113;28;20187;-89
2021/12/13 01:54:44;;;;;;;3.97;1.85;;;;;;;1.90;78.85;101324.38;5040050;28;20512;-91
2021/12/13 01:57:23;;;;;;;3.00;1.85;;;;;;;1.94;80.34;101331.09;5023304;28;20041;-91
2021/12/13 02:00:07;;;;;;;2.45;1.42;;;;;;;1.87;81.30;101330.63;5007579;28;20677;-93
2021/12/13 02:02:45;;;;;;;2.35;1.27;;;;;;;1.89;81.42;101327.94;5025332;28;20072;-90
2021/12/13 02:05:18;;;;;;;2.75;1.67;;;;;;;1.76;80.49;101326.91;5005777;28;20076;-93
2021/12/13 02:07:46;;;;;;;2.45;1.33;;;;;;;1.84;80.26;101324.72;5040024;28;20035;-89
2021/12/13 02:10:20;;;;;;;1.73;1.10;;;;;;;1.72;80.67;101317.59;5039929;28;20059;-89
2021/12/13 02:12:54;;;;;;;1.67;1.25;;;;;;;1.72;80.46;101321.03;5021537;28;20061;-91
2021/12/13 02:18:25;;;;;;;2.05;1.40;;;;;;;1.63;80.97;101311.09;5041988;28;20045;-92
2021/12/13 02:21:07;;;;;;;4.25;2.10;;;;;;;1.65;81.27;101318.84;5008117;28;20029;-92
2021/12/13 02:23:42;;;;;;;1.50;1.20;;;;;;;1.66;81.27;101315.31;5025300;28;20068;-92
2021/12/13 02:26:12;;;;;;;3.63;1.50;;;;;;;1.66;80.82;101304.88;5025562;28;20037;-93
2021/12/13 02:32:48;;;;;;;3.22;1.48;;;;;;;1.87;80.82;101309.72;5055726;28;20112;-92
2021/12/13 02:35:28;;;;;;;1.48;1.38;;;;;;;1.75;80.59;101288.66;5042172;28;20052;-89
2021/12/13 02:38:02;;;;;;;2.20;1.25;;;;;;;1.87;80.64;101296.63;4997685;28;20045;-91
2021/12/13 02:40:31;;;;;;;2.92;1.83;;;;;;;1.93;80.11;101293.66;5021289;23;20072;-92
2021/12/13 02:42:57;;;;;;;2.33;1.52;;;;;;;2.00;79.24;101284.53;4987620;28;20034;-92
2021/12/13 02:45:42;;;;;;;2.55;1.60;;;;;;;1.91;80.26;101276.41;4987791;28;20099;-93
2021/12/13 02:48:19;;;;;;;3.05;1.85;;;;;;;1.73;80.98;101272.22;5022125;28;20099;-92
2021/12/13 02:51:38;;;;;;;4.38;1.65;;;;;;;1.70;80.67;101275.84;4990670;28;20030;-92
2021/12/13 02:54:12;;;;;;;2.35;1.65;;;;;;;1.84;80.23;101280.28;4931383;29;20047;-93
2021/12/13 02:57:15;;;;;;;3.47;1.65;;;;;;;2.03;80.30;101288.75;4930648;29;20043;-92
2021/12/13 02:59:48;;;;;;;6.13;2.03;;;;;;;2.01;80.01;101288.00;4928186;29;20058;-93
2021/12/13 03:02:39;;;;;;;4.55;2.10;;;;;;;2.01;80.38;101286.25;4929447;29;20091;-92
2021/12/13 03:05:47;;;;;;;8.00;3.78;;;;;;;1.99;80.57;101289.84;5001669;28;20134;-89
2021/12/13 03:08:32;;;;;;;8.93;4.00;;;;;;;2.17;81.01;101280.09;5014703;28;20037;-90
2021/12/13 03:11:14;;;;;;;6.15;3.35;;;;;;;2.29;80.04;101282.81;4979044;28;20038;-94
2021/12/13 03:13:40;;;;;;;4.95;1.80;;;;;;;2.45;79.62;101288.00;5003454;28;20034;-92
2021/12/13 03:16:20;;;;;;;6.18;2.90;;;;;;;2.54;79.56;101287.44;4970824;28;20044;-92
2021/12/13 03:19:02;;;;;;;5.72;2.88;;;;;;;2.50;79.21;101284.19;5021483;28;20041;-92
2021/12/13 03:22:12;;;;;;;6.75;2.80;;;;;;;2.51;79.13;101285.88;5005027;28;20037;-92
2021/12/13 03:25:11;;;;;;;4.03;2.25;;;;;;;2.44;79.60;101294.16;4964748;28;20050;-92
2021/12/13 03:28:03;;;;;;;4.20;2.28;;;;;;;2.22;80.06;101294.56;4946215;28;20065;-92
2021/12/13 03:30:57;;;;;;;3.47;2.10;;;;;;;1.98;81.10;101280.34;4961648;28;20043;-92
2021/12/13 03:33:40;;;;;;;3.85;2.25;;;;;;;2.08;81.93;101297.19;4961323;28;20534;-89
2021/12/13 03:36:10;;;;;;;;;;;;;;;2.19;81.45;101289.53;5000227;28;20411;-92
2021/12/13 03:38:59;;;;;;;4.28;2.10;;;;;;;2.12;81.26;101298.69;4985343;28;19918;-91
2021/12/13 03:41:29;;;;;;;5.30;2.05;;;;;;;2.02;81.33;101300.16;5002600;28;20080;-91
2021/12/13 03:44:24;;;;;;;3.78;2.30;;;;;;;2.01;82.16;101306.31;5002370;28;20083;-92
2021/12/13 03:46:56;;;;;;;3.55;2.10;;;;;;;1.97;81.45;101318.72;5001151;28;20384;-90
2021/12/13 03:49:50;;;;;;;3.70;2.38;;;;;;;1.93;81.67;101308.50;5000288;28;20033;-89
2021/12/13 03:52:25;;;;;;;6.45;2.53;;;;;;;1.82;82.90;101316.13;5018648;28;20022;-91
2021/12/13 03:54:53;;;;;;;5.05;2.85;;;;;;;1.93;82.21;101319.81;5000471;28;20065;-92
2021/12/13 03:57:20;;;;;;;4.68;2.50;;;;;;;1.95;82.47;101317.13;5018296;28;20700;-91
2021/12/13 03:59:50;;;;;;;5.60;2.47;;;;;;;1.99;82.06;101306.38;5018828;28;20021;-91
2021/12/13 04:02:23;;;;;;;6.80;2.80;;;;;;;2.10;82.26;101316.22;5000965;28;20054;-87
2021/12/13 04:05:10;;;;;;;4.85;2.30;;;;;;;2.20;81.78;101326.97;5000832;28;20033;-91
2021/12/13 04:08:02;;;;;;;4.97;2.55;;;;;;;2.27;80.98;101321.31;4999567;28;20511;-92
2021/12/13 04:10:41;;;;;;;3.13;2.03;;;;;;;2.38;79.36;101320.69;5001991;28;20553;-92
2021/12/13 04:13:13;;;;;;;2.13;1.40;;;;;;;2.29;77.51;101316.81;5018201;28;20042;-91
2021/12/13 04:16:15;;;;;;;1.55;0.98;;;;;;;2.37;77.69;101330.31;5001135;28;20046;-92
2021/12/13 04:21:36;;;;;;;2.47;1.33;;;;;;;2.12;76.89;101324.84;5000088;28;20084;-89
2021/12/13 04:24:10;;;;;;;3.08;1.95;;;;;;;2.07;77.93;101321.63;5018161;28;20072;-90
2021/12/13 04:27:05;;;;;;;3.15;1.90;;;;;;;2.26;77.88;101324.84;5002772;28;20049;-90
2021/12/13 04:29:42;;;;;;;3.47;1.67;;;;;;;2.26;77.06;101314.41;5005817;28;20101;-91
2021/12/13 04:32:35;;;;;;;3.40;1.90;;;;;;;2.07;77.41;101316.41;5009584;28;20061;-91
2021/12/13 04:35:18;;;;;;;2.97;1.90;;;;;;;2.08;77.61;101318.09;5015962;28;20065;-91
2021/12/13 04:37:54;;;;;;;4.68;1.70;;;;;;;2.18;77.74;101318.41;5013954;28;20042;-94
2021/12/13 04:40:30;;;;;;;2.53;1.50;;;;;;;2.27;77.38;101323.94;5007047;28;20038;-93
2021/12/13 04:43:06;;;;;;;2.90;1.88;;;;;;;2.41;76.63;101338.81;4991721;28;20057;-94
2021/12/13 04:45:33;;;;;;;3.20;1.60;;;;;;;2.46;76.24;101327.16;5025183;28;20048;-92
2021/12/13 04:48:12;;;;;;;5.23;1.70;;;;;;;2.35;76.41;101320.88;5008219;28;20096;-91
2021/12/13 04:50:51;;;;;;;2.35;1.52;;;;;;;2.36;75.59;101328.63;5006225;28;20084;-91
2021/12/13 04:53:21;;;;;;;2.95;1.48;;;;;;;2.16;76.02;101331.56;5006239;28;20048;-93
2021/12/13 04:55:48;;;;;;;2.63;1.40;;;;;;;2.19;75.81;101326.13;5007420;28;20037;-92
2021/12/13 04:58:20;;;;;;;5.78;2.10;;;;;;;2.23;76.14;101335.50;5009821;28;20034;-92
2021/12/13 05:00:51;;;;;;;3.17;1.80;;;;;;;2.49;75.73;101333.97;5009965;28;20036;-91
2021/12/13 05:03:21;;;;;;;5.03;2.80;;;;;;;2.14;76.25;101333.44;5010078;28;20082;-89
2021/12/13 05:05:48;;;;;;;5.75;3.13;;;;;;;1.94;76.04;101331.09;5024963;28;20124;-92
2021/12/13 05:08:16;;;;;;;3.35;1.90;;;;;;;1.74;76.88;101341.84;5008759;28;20042;-90
2021/12/13 05:10:48;;;;;;;3.25;1.48;;;;;;;1.54;77.69;101343.78;5008007;28;20042;-92
2021/12/13 05:13:31;;;;;;;2.03;1.50;;;;;;;1.71;76.77;101345.47;5006343;28;20162;-92
2021/12/13 05:16:09;;;;;;;2.75;1.77;;;;;;;1.82;76.74;101342.25;4992959;28;20100;-91
2021/12/13 05:18:46;;;;;;;3.47;1.70;;;;;;;1.90;76.29;101334.81;5023998;28;20132;-92
2021/12/13 05:21:17;;;;;;;6.55;1.98;;;;;;;1.90;76.96;101334.81;5007235;28;20471;-90
2021/12/13 05:23:55;;;;;;;4.18;2.00;;;;;;;1.97;77.19;101320.47;5006658;28;20483;-92
2021/12/13 05:26:59;;;;;;;5.88;2.35;;;;;;;1.90;77.67;101324.38;5006640;28;20121;-91
2021/12/13 05:29:31;;;;;;;5.07;2.40;;;;;;;1.94;77.93;101325.88;5000867;28;20418;-88
2021/12/13 05:32:01;;;;;;;5.50;2.20;;;;;;;1.84;78.43;101319.50;5018362;28;20088;-86
2021/12/13 05:34:55;;;;;;;3.53;2.33;;;;;;;1.81;79.06;101322.28;4999151;28;20045;-86
2021/12/13 05:37:21;;;;;;;6.63;2.30;;;;;;;1.76;78.95;101329.53;5015900;28;20050;-88
2021/12/13 05:40:16;;;;;;;5.93;2.20;;;;;;;1.86;78.67;101336.75;4999493;28;20030;-87
2021/12/13 05:42:46;;;;;;;5.70;2.28;;;;;;;1.90;79.00;101327.81;5018310;28;20034;-89
2021/12/13 05:45:18;;;;;;;3.75;2.15;;;;;;;2.02;78.99;101328.91;5017454;28;20037;-88
2021/12/13 05:48:09;;;;;;;7.35;2.30;;;;;;;2.15;78.96;101329.88;5016572;28;20044;-89
2021/12/13 05:50:39;;;;;;;5.60;2.70;;;;;;;2.17;79.05;101333.25;5017172;28;20042;-89
2021/12/13 05:53:17;;;;;;;3.70;2.38;;;;;;;2.16;79.13;101326.31;5019568;28;20041;-90
2021/12/13 05:55:53;;;;;;;4.07;2.10;;;;;;;2.07;79.08;101327.72;5043987;22;20057;-89
2021/12/13 06:02:02;;;;;;;4.47;2.55;;;;;;;2.15;79.03;101329.88;2475095;22;20100;-92
2021/12/13 06:04:53;;;;;;;6.65;2.92;;;;;;;2.27;78.62;101339.63;5049097;28;20487;-92
2021/12/13 06:07:40;;;;;;;3.92;1.75;;;;;;;2.37;77.46;101327.69;5022573;28;20368;-91
2021/12/13 06:10:13;;;;;;;3.92;2.10;;;;;;;2.46;76.20;101335.00;5006336;23;20057;-90
2021/12/13 06:12:57;;;;;;;3.15;1.65;;;;;;;2.54;75.91;101337.16;4992493;28;20055;-92
2021/12/13 06:15:43;;;;;;;6.07;1.83;;;;;;;2.54;75.05;101337.16;4983893;28;20481;-91
2021/12/13 06:18:16;;;;;;;5.47;2.33;;;;;;;2.45;75.99;101338.53;4980653;28;20051;-88
2021/12/13 06:20:58;;;;;;;5.32;2.33;;;;;;;2.25;76.93;101346.72;4983100;28;20062;-91
2021/12/13 06:23:27;;;;;;;13.95;2.70;;;;;;;2.08;79.21;101339.00;4985284;28;20085;-88
2021/12/13 06:26:03;;;;;;;5.18;2.30;;;;;;;2.34;78.76;101340.09;4979047;28;20034;-90
2021/12/13 06:28:53;;;;;;;2.97;2.03;;;;;;;2.32;77.51;101339.38;5002911;28;20577;-91
2021/12/13 06:31:22;;;;;;;12.35;3.25;;;;;;;2.32;76.78;101334.13;4981924;28;20062;-91
2021/12/13 06:33:53;;;;;;;7.90;3.72;;;;;;;2.34;75.93;101343.56;4982655;28;20034;-91
2021/12/13 06:36:37;;;;;;;8.18;3.00;;;;;;;2.30;75.20;101336.81;4983113;28;20089;-85
2021/12/13 06:39:20;;;;;;;3.70;1.95;;;;;;;2.30;74.91;101339.44;4984236;28;20369;-88
2021/12/13 06:41:47;;;;;;;5.40;2.75;;;;;;;2.29;75.43;101347.38;4977125;28;20050;-89
2021/12/13 06:44:27;;;;;;;3.60;1.80;;;;;;;2.35;75.37;101342.66;4993550;28;20039;-86
2021/12/13 06:47:06;;;;;;;4.25;1.80;;;;;;;2.33;75.34;101347.09;4979214;28;20540;-92
2021/12/13 06:49:43;;;;;;;3.83;2.05;;;;;;;2.45;74.80;101356.84;4977959;28;20054;-87
2021/12/13 06:52:29;;;;;;;7.15;2.60;;;;;;;2.49;74.57;101355.75;4975598;28;20031;-88
2021/12/13 06:54:56;;;;;;;4.40;2.75;;;;;;;2.66;73.90;101351.28;4976225;28;20046;-85
2021/12/13 06:57:41;;;;;;;6.78;2.42;;;;;;;2.69;72.93;101361.56;4975841;28;20468;-88
2021/12/13 07:00:23;;;;;;;4.25;2.58;;;;;;;3.12;73.01;101350.19;4975075;28;20408;-87
2021/12/13 07:02:53;;;;;;;4.25;2.25;;;;;;;3.67;70.76;101358.06;4976713;28;20039;-91
2021/12/13 07:05:32;;;;;;;3.63;2.00;;;;;;;3.82;68.63;101366.72;4975274;28;20193;-86
2021/12/13 07:08:02;;;;;;;4.32;1.95;;;;;;;3.56;68.21;101368.38;4977294;28;20039;-87
2021/12/13 07:10:51;;;;;;;3.72;1.90;;;;;;;3.19;70.38;101363.75;4976768;28;20448;-89
2021/12/13 07:13:19;;;;;;;3.55;2.08;;;;;;;3.28;70.16;101366.63;4972916;28;20050;-86
2021/12/13 07:15:50;;;;;;;3.88;1.70;;;;;;;3.45;69.82;101373.44;4975871;28;20181;-86
2021/12/13 07:18:15;;;;;;;3.85;2.15;;;;;;;3.67;69.64;101378.19;4975612;28;20034;-84
2021/12/13 07:20:46;;;;;;;3.20;2.00;;;;;;;4.28;68.49;101378.53;4978500;28;20039;-87
2021/12/13 07:23:12;;;;;;;4.10;2.10;;;;;;;4.60;66.25;101382.50;4976747;28;20058;-87
2021/12/13 07:25:40;;;;;;;4.38;2.30;;;;;;;4.77;64.39;101380.50;4964833;28;20396;-87
2021/12/13 07:28:08;;;;;;;4.20;2.30;;;;;;;5.39;63.29;101379.63;4973301;28;20026;-87
2021/12/13 07:30:36;;;;;;;3.92;2.17;;;;;;;5.20;62.89;101392.41;4966700;28;20039;-86
2021/12/13 07:33:08;;;;;;;4.78;2.50;;;;;;;5.17;62.75;101387.34;4968984;28;20035;-88
2021/12/13 07:35:43;;;;;;;7.68;2.90;;;;;;;4.81;63.74;101389.84;4963876;28;20035;-88
2021/12/13 07:38:18;;;;;;;6.75;2.75;;;;;;;3.95;66.63;101399.91;4955737;28;20067;-86
2021/12/13 07:40:52;;;;;;;7.85;2.70;;;;;;;3.86;66.60;101400.50;4977831;28;20031;-85
2021/12/13 07:43:38;;;;;;;4.47;2.47;;;;;;;4.13;66.63;101392.66;4974958;28;20443;-83
2021/12/13 07:46:27;;;;;;;6.05;3.20;;;;;;;4.23;65.31;101392.91;4974816;28;20058;-84
2021/12/13 07:49:01;;;;;;;11.65;3.17;;;;;;;3.80;67.27;101390.44;4973246;28;20038;-83
2021/12/13 07:51:31;;;;;;;9.98;4.40;;;;;;;3.63;68.57;101394.13;4974511;28;20035;-85
2021/12/13 07:53:57;;;;;;;7.93;4.63;;;;;;;3.17;69.66;101405.75;4974380;28;20110;-84
2021/12/13 07:56:28;;;;;;;9.60;4.07;;;;;;;2.98;71.17;101405.19;4974775;28;20165;-85
2021/12/13 07:59:15;;;;;;;7.32;3.60;;;;;;;2.90;70.86;101407.41;4974515;28;20034;-84
2021/12/13 08:01:46;;;;;;;7.72;3.28;;;;;;;2.71;72.90;101412.06;4974434;28;20515;-80
2021/12/13 08:04:31;;;;;;;12.47;3.90;;;;;;;2.97;72.35;101408.72;4974625;28;20633;-78
2021/12/13 08:07:08;;;;;;;17.35;3.92;;;;;;;2.91;73.20;101416.97;4969695;28;20508;-87
2021/12/13 08:09:39;;;;;;;12.40;3.92;;;;;;;3.13;72.45;101414.72;4968782;28;20043;-87
2021/12/13 08:12:32;;;;;;;10.43;4.63;;;;;;;2.90;72.24;101410.03;4972493;28;20031;-88
2021/12/13 08:15:32;;;;;;;12.38;4.60;;;;;;;2.76;73.05;101415.22;4974418;28;20061;-87
2021/12/13 08:18:02;;;;;;;10.90;4.35;;;;;;;2.36;74.50;101416.69;4974150;28;20137;-88
2021/12/13 08:20:32;;;;;;;9.30;4.03;;;;;;;2.45;74.69;101418.81;4974169;28;20409;-86
2021/12/13 08:22:59;;;;;;;9.77;4.55;;;;;;;2.75;74.36;101414.38;4973338;28;20043;-88
2021/12/13 08:25:33;;;;;;;6.72;3.85;;;;;;;3.17;73.56;101410.16;4971602;28;20322;-88
2021/12/13 08:28:15;;;;;;;8.13;3.83;;;;;;;3.60;71.78;101404.78;4970529;28;20035;-89
2021/12/13 08:30:56;;;;;;;12.07;4.40;;;;;;;3.81;70.14;101410.44;4977755;28;20015;-88
2021/12/13 08:33:49;;;;;;;7.82;3.55;;;;;;;3.90;71.07;101416.91;4998761;28;20027;-88
2021/12/13 08:36:16;;;;;;;;;;;;;;;3.99;70.50;101416.31;4999015;28;20018;-90
2021/12/13 08:39:25;;;;;;;8.65;4.53;;;;;;;4.28;71.10;101412.63;4996184;28;19945;-88
2021/12/13 08:41:56;;;;;;;10.35;5.40;;;;;;;4.32;70.46;101416.75;4953613;29;20525;-88
2021/12/13 08:44:27;;;;;;;13.35;6.43;;;;;;;3.62;72.74;101416.00;4954176;29;20036;-88
2021/12/13 08:47:00;;;;;;;8.98;5.38;;;;;;;3.34;73.62;101423.06;4955383;28;20039;-88
2021/12/13 08:49:43;;;;;;;14.88;5.82;;;;;;;3.65;73.23;101420.22;4955186;28;20308;-87
2021/12/13 08:52:24;;;;;;;12.68;6.38;;;;;;;3.62;73.16;101423.03;4954127;29;20585;-89
2021/12/13 08:55:15;;;;;;;14.07;6.53;;;;;;;3.84;72.42;101422.53;4965844;28;20484;-88
2021/12/13 08:57:55;;;;;;;14.80;8.38;;;;;;;3.76;72.71;101427.41;4973136;28;20399;-87
2021/12/13 09:00:44;;;;;;;15.25;6.90;;;;;;;3.53;72.43;101440.19;4974944;28;20109;-88
2021/12/13 09:03:09;;;;;;;15.07;7.93;;;;;;;3.48;73.41;101447.47;4973065;28;20042;-86
2021/12/13 09:05:40;;;;;;;14.75;8.45;;;;;;;3.32;74.20;101449.34;4974287;28;20030;-88
2021/12/13 09:08:15;;;;;;;18.35;7.90;;;;;;;3.46;74.65;101444.09;4974771;28;20050;-88
2021/12/13 09:10:50;;;;;;;16.10;9.57;;;;;;;3.16;75.32;101456.44;4961172;28;20040;-87
2021/12/13 09:13:19;;;;;;;15.00;9.07;;;;;;;3.16;76.00;101451.22;4958218;28;20476;-88
2021/12/13 09:15:48;;;;;;;14.98;9.23;;;;;;;3.05;76.56;101458.84;4972613;28;20436;-89
2021/12/13 09:18:20;;;;;;;14.98;9.23;;;;;;;3.01;76.83;101452.13;4974245;28;20114;-86
2021/12/13 09:20:51;;;;;;;12.52;7.70;;;;;;;3.03;77.01;101455.50;4973524;28;20027;-87
2021/12/13 09:23:21;;;;;;;17.25;8.52;;;;;;;3.27;75.37;101453.19;4976530;28;20038;-86
2021/12/13 09:25:54;;;;;;;11.70;7.53;;;;;;;3.19;74.97;101451.00;4979810;28;20038;-90
2021/12/13 09:28:32;;;;;;;16.08;7.43;;;;;;;3.20;75.63;101455.34;4977839;28;20549;-87
2021/12/13 09:31:11;;;;;;;14.90;7.05;;;;;;;3.36;74.41;101456.09;4978581;28;20122;-88
2021/12/13 09:33:43;;;;;;;12.45;7.20;;;;;;;3.29;74.59;101457.38;4978478;28;20508;-90
2021/12/13 09:36:12;;;;;;;13.30;6.80;;;;;;;3.25;75.30;101455.88;4978567;28;20559;-87
2021/12/13 09:39:04;;;;;;;21.58;8.60;;;;;;;3.24;75.56;101459.47;4969111;28;20042;-89
2021/12/13 09:42:04;;;;;;;13.45;7.20;;;;;;;3.20;74.68;101449.25;4976763;28;20043;-86
2021/12/13 09:44:47;;;;;;;15.15;6.53;;;;;;;3.17;74.60;101455.53;4980305;28;20031;-90
2021/12/13 09:47:45;;;;;;;12.57;7.55;;;;;;;3.27;74.87;101448.78;4978092;28;20424;-89
2021/12/13 09:50:16;;;;;;;18.15;7.80;;;;;;;3.48;73.69;101457.94;4959916;29;20050;-88
2021/12/13 09:52:49;;;;;;;15.40;7.05;;;;;;;3.59;73.42;101449.44;4944567;29;20509;-87
2021/12/13 09:55:25;;;;;;;16.70;8.85;;;;;;;3.57;73.68;101452.16;4930494;29;20039;-88
2021/12/13 09:57:57;;;;;;;13.18;6.68;;;;;;;3.52;72.96;101454.22;4948084;29;20075;-90
2021/12/13 10:00:49;;;;;;;10.35;6.05;;;;;;;3.61;73.03;101458.06;4965714;28;20050;-89
2021/12/13 10:03:23;;;;;;;10.00;5.43;;;;;;;3.61;73.09;101448.38;4959611;28;20078;-87
2021/12/13 10:05:52;;;;;;;20.65;7.53;;;;;;;3.57;73.77;101441.69;4977751;28;20031;-89
2021/12/13 10:08:26;;;;;;;19.42;7.45;;;;;;;3.67;74.46;101448.97;4978367;28;20035;-88
2021/12/13 10:11:02;;;;;;;14.68;7.80;;;;;;;3.72;73.97;101439.03;4977040;28;20038;-89
2021/12/13 10:13:32;;;;;;;14.98;8.45;;;;;;;3.72;75.65;101444.25;4977875;28;20491;-86
2021/12/13 10:16:02;;;;;;;18.33;7.88;;;;;;;3.77;75.67;101442.22;4976885;28;20049;-87
2021/12/13 10:18:32;;;;;;;14.20;7.95;;;;;;;3.74;75.77;101434.53;4976933;28;20510;-89
2021/12/13 10:21:02;;;;;;;19.83;7.80;;;;;;;3.75;76.05;101430.97;4978521;28;20038;-87
2021/12/13 10:23:33;;;;;;;12.95;7.57;;;;;;;3.99;76.68;101432.88;4977876;28;20050;-85
2021/12/13 10:26:02;;;;;;;16.75;7.80;;;;;;;4.15;76.10;101430.13;4978781;28;20431;-89
2021/12/13 10:28:33;;;;;;;16.48;7.43;;;;;;;4.09;74.07;101430.50;4979081;28;20062;-88
2021/12/13 10:31:07;;;;;;;13.57;7.47;;;;;;;4.04;75.27;101424.72;4977652;28;20377;-88
2021/12/13 10:33:36;;;;;;;27.90;8.30;;;;;;;4.11;74.72;101426.84;4977622;28;20010;-89
2021/12/13 10:36:04;;;;;;;18.42;7.20;;;;;;;4.07;73.74;101441.13;4976658;28;20093;-87
2021/12/13 10:38:39;;;;;;;12.68;6.75;;;;;;;4.16;74.10;101435.28;4977080;28;20066;-88
2021/12/13 10:41:09;;;;;;;13.40;6.80;;;;;;;4.23;73.85;101424.38;4976006;28;20093;-89
2021/12/13 10:43:41;;;;;;;15.55;6.75;;;;;;;4.16;73.54;101430.03;4977063;28;20377;-88
2021/12/13 10:46:19;;;;;;;13.35;6.38;;;;;;;4.20;72.80;101424.59;4976832;28;20071;-90
2021/12/13 10:48:50;;;;;;;12.63;6.65;;;;;;;4.26;72.65;101414.53;4977801;28;20038;-90
2021/12/13 10:51:37;;;;;;;16.30;6.82;;;;;;;4.45;73.97;101417.63;4978161;28;20031;-87
2021/12/13 10:54:11;;;;;;;11.85;6.47;;;;;;;4.49;71.98;101420.88;4976256;28;20042;-87
2021/12/13 10:56:42;;;;;;;16.65;7.30;;;;;;;4.29;73.90;101422.19;4976549;28;20039;-88
2021/12/13 10:59:13;;;;;;;14.73;7.15;;;;;;;4.31;73.99;101412.44;4975570;28;20396;-89
2021/12/13 11:01:43;;;;;;;18.40;7.18;;;;;;;4.67;75.03;101409.19;4976491;28;20038;-87
2021/12/13 11:04:13;;;;;;;15.40;6.70;;;;;;;4.75;72.11;101411.28;4978754;28;20038;-88
2021/12/13 11:06:43;;;;;;;14.95;7.40;;;;;;;4.73;71.88;101413.16;4977520;28;20042;-88
2021/12/13 11:09:16;;;;;;;16.05;6.72;;;;;;;5.02;72.05;101410.25;4975832;28;20046;-89
2021/12/13 11:11:49;;;;;;;20.75;6.50;;;;;;;4.96;71.84;101405.41;4976560;28;20125;-91
2021/12/13 11:14:20;;;;;;;14.63;6.18;;;;;;;4.99;70.54;101404.38;4978554;28;20062;-91
2021/12/13 11:16:59;;;;;;;15.18;6.30;;;;;;;5.04;71.40;101397.84;4978213;28;20049;-90
2021/12/13 11:19:30;;;;;;;14.60;6.65;;;;;;;5.22;70.86;101390.50;4960569;28;20039;-90
2021/12/13 11:22:01;;;;;;;13.40;6.35;;;;;;;5.24;71.63;101385.13;4978079;28;20038;-88
2021/12/13 11:24:29;;;;;;;20.73;6.68;;;;;;;5.41;69.29;101390.03;4978429;28;20039;-90
2021/12/13 11:27:00;;;;;;;21.23;6.15;;;;;;;5.41;70.07;101390.88;4982291;28;20015;-91
2021/12/13 11:30:06;;;;;;;15.02;6.85;;;;;;;5.44;71.76;101390.66;5045405;23;20048;-89
2021/12/13 11:32:40;;;;;;;18.73;6.30;;;;;;;5.60;72.02;101375.47;5045260;23;20021;-87
2021/12/13 11:35:06;;;;;;;10.70;5.75;;;;;;;5.69;71.48;101385.34;5058338;28;20024;-89
2021/12/13 11:37:54;;;;;;;13.95;5.95;;;;;;;5.89;72.12;101380.47;5047410;28;20029;-87
2021/12/13 11:40:37;;;;;;;11.07;6.32;;;;;;;5.84;69.40;101378.13;5037063;28;20042;-88
2021/12/13 11:43:30;;;;;;;12.55;6.88;;;;;;;5.80;70.07;101381.13;5036286;28;20467;-91
2021/12/13 11:45:58;;;;;;;23.25;7.38;;;;;;;5.81;70.60;101372.25;5035661;28;20035;-90
2021/12/13 11:48:42;;;;;;;12.68;7.38;;;;;;;6.02;71.95;101378.63;5036558;28;20364;-89
2021/12/13 11:51:45;;;;;;;14.73;7.53;;;;;;;5.93;70.16;101366.16;5036832;28;20379;-90
2021/12/13 11:54:10;;;;;;;21.42;8.02;;;;;;;5.98;70.56;101374.53;5033184;28;20128;-90
2021/12/13 11:57:04;;;;;;;11.73;6.18;;;;;;;5.99;68.36;101370.97;5036374;28;20069;-89
2021/12/13 12:00:04;;;;;;;11.70;6.78;;;;;;;6.11;69.15;101375.31;5038038;28;20140;-90
2021/12/13 12:03:22;;;;;;;12.70;6.93;;;;;;;6.20;67.24;101374.63;5036379;28;20465;-89
2021/12/13 12:06:21;;;;;;;12.88;6.40;;;;;;;6.25;66.40;101372.53;5036853;28;20029;-89
2021/12/13 12:08:59;;;;;;;15.75;7.22;;;;;;;6.15;66.37;101363.63;5035220;28;20033;-91
2021/12/13 12:12:03;;;;;;;11.60;6.13;;;;;;;6.30;68.31;101362.47;5037124;28;20047;-90
2021/12/13 12:14:29;;;;;;;;;;;;;;;6.28;67.76;101356.50;5035868;28;20035;-89
2021/12/13 12:16:57;;;;;;;17.40;7.40;;;;;;;6.45;66.96;101358.72;5036109;28;19917;-86
2021/12/13 12:19:30;;;;;;;17.52;7.93;;;;;;;6.51;67.33;101358.25;5038106;28;20044;-90
2021/12/13 12:21:56;;;;;;;14.50;6.82;;;;;;;6.48;68.08;101363.75;5026249;28;20052;-86
2021/12/13 12:24:41;;;;;;;13.85;7.35;;;;;;;6.41;66.60;101357.25;5009106;28;20034;-89
2021/12/13 12:27:14;;;;;;;15.10;7.13;;;;;;;6.41;66.69;101346.72;5035998;28;20033;-90
2021/12/13 12:29:44;;;;;;;19.83;7.00;;;;;;;6.38;65.56;101349.59;5032636;28;20490;-88
2021/12/13 12:32:19;;;;;;;14.88;7.32;;;;;;;6.46;66.06;101343.75;5018257;28;20037;-90
2021/12/13 12:34:47;;;;;;;20.98;7.72;;;;;;;6.52;65.83;101346.75;5035644;28;20040;-89
2021/12/13 12:37:51;;;;;;;17.90;7.80;;;;;;;6.61;65.26;101343.44;5033453;28;20350;-89
2021/12/13 12:40:25;;;;;;;13.70;7.03;;;;;;;6.72;66.23;101332.94;5005751;28;20487;-90
2021/12/13 12:42:56;;;;;;;19.35;7.15;;;;;;;6.84;67.08;101335.56;5043977;28;20034;-89
2021/12/13 12:45:33;;;;;;;17.35;7.45;;;;;;;6.93;66.73;101332.19;5021895;28;20491;-91